sensor_id;sensor_type;location;lat;lon;timestamp;P1;durP1;ratioP1;P2;durP2;ratioP2
846;SDS011;410;48.954;9.474;2022-12-18T00:00:32;42.00;;;23.80;;
846;SDS011;410;48.954;9.474;2022-12-18T00:03:01;42.35;;;22.60;;
846;SDS011;410;48.954;9.474;2022-12-18T00:05:05;45.95;;;24.55;;
846;SDS011;410;48.954;9.474;2022-12-18T00:07:08;44.55;;;22.42;;
846;SDS011;410;48.954;9.474;2022-12-18T00:09:12;42.50;;;22.60;;
846;SDS011;410;48.954;9.474;2022-12-18T00:11:16;45.40;;;22.90;;
846;SDS011;410;48.954;9.474;2022-12-18T00:13:21;57.78;;;29.58;;
846;SDS011;410;48.954;9.474;2022-12-18T00:15:25;43.03;;;23.25;;
846;SDS011;410;48.954;9.474;2022-12-18T00:17:28;42.88;;;22.83;;
846;SDS011;410;48.954;9.474;2022-12-18T00:19:31;43.05;;;23.35;;
846;SDS011;410;48.954;9.474;2022-12-18T00:21:34;53.05;;;25.25;;
846;SDS011;410;48.954;9.474;2022-12-18T00:23:38;60.63;;;29.75;;
846;SDS011;410;48.954;9.474;2022-12-18T00:25:42;53.42;;;27.95;;
846;SDS011;410;48.954;9.474;2022-12-18T00:27:45;50.55;;;27.45;;
846;SDS011;410;48.954;9.474;2022-12-18T00:29:50;62.05;;;31.90;;
846;SDS011;410;48.954;9.474;2022-12-18T00:31:53;103.10;;;47.97;;
846;SDS011;410;48.954;9.474;2022-12-18T00:33:56;91.40;;;42.60;;
846;SDS011;410;48.954;9.474;2022-12-18T00:36:00;109.18;;;47.95;;
846;SDS011;410;48.954;9.474;2022-12-18T00:38:03;68.95;;;36.78;;
846;SDS011;410;48.954;9.474;2022-12-18T00:40:08;57.65;;;31.10;;
846;SDS011;410;48.954;9.474;2022-12-18T00:42:12;52.13;;;26.90;;
846;SDS011;410;48.954;9.474;2022-12-18T00:44:33;49.55;;;25.75;;
846;SDS011;410;48.954;9.474;2022-12-18T00:46:37;54.92;;;30.25;;
846;SDS011;410;48.954;9.474;2022-12-18T00:48:41;48.63;;;24.48;;
846;SDS011;410;48.954;9.474;2022-12-18T00:50:46;51.58;;;27.25;;
846;SDS011;410;48.954;9.474;2022-12-18T00:52:50;43.70;;;23.27;;
846;SDS011;410;48.954;9.474;2022-12-18T00:54:53;41.70;;;23.23;;
846;SDS011;410;48.954;9.474;2022-12-18T00:56:56;48.33;;;25.35;;
846;SDS011;410;48.954;9.474;2022-12-18T00:58:59;44.05;;;23.70;;
846;SDS011;410;48.954;9.474;2022-12-18T01:01:03;48.30;;;24.45;;
846;SDS011;410;48.954;9.474;2022-12-18T01:03:10;49.35;;;27.85;;
846;SDS011;410;48.954;9.474;2022-12-18T01:05:17;46.45;;;23.48;;
846;SDS011;410;48.954;9.474;2022-12-18T01:07:21;45.33;;;24.77;;
846;SDS011;410;48.954;9.474;2022-12-18T01:09:26;44.00;;;24.48;;
846;SDS011;410;48.954;9.474;2022-12-18T01:11:30;42.83;;;23.63;;
846;SDS011;410;48.954;9.474;2022-12-18T01:13:33;42.65;;;23.63;;
846;SDS011;410;48.954;9.474;2022-12-18T01:15:37;48.75;;;27.23;;
846;SDS011;410;48.954;9.474;2022-12-18T01:17:44;46.65;;;21.60;;
846;SDS011;410;48.954;9.474;2022-12-18T01:19:48;54.38;;;22.80;;
846;SDS011;410;48.954;9.474;2022-12-18T01:21:51;45.85;;;22.70;;
846;SDS011;410;48.954;9.474;2022-12-18T01:23:55;41.75;;;22.27;;
846;SDS011;410;48.954;9.474;2022-12-18T01:26:03;41.17;;;22.15;;
846;SDS011;410;48.954;9.474;2022-12-18T01:28:09;42.22;;;22.20;;
846;SDS011;410;48.954;9.474;2022-12-18T01:30:12;41.95;;;21.45;;
846;SDS011;410;48.954;9.474;2022-12-18T01:32:18;39.28;;;23.45;;
846;SDS011;410;48.954;9.474;2022-12-18T01:34:22;40.28;;;21.90;;
846;SDS011;410;48.954;9.474;2022-12-18T01:36:27;42.53;;;22.67;;
846;SDS011;410;48.954;9.474;2022-12-18T01:38:31;40.42;;;22.63;;
846;SDS011;410;48.954;9.474;2022-12-18T01:40:34;42.85;;;24.27;;
846;SDS011;410;48.954;9.474;2022-12-18T01:42:37;41.65;;;22.35;;
846;SDS011;410;48.954;9.474;2022-12-18T01:47:08;43.38;;;21.63;;
846;SDS011;410;48.954;9.474;2022-12-18T01:49:11;39.58;;;21.55;;
846;SDS011;410;48.954;9.474;2022-12-18T01:51:14;39.53;;;21.42;;
846;SDS011;410;48.954;9.474;2022-12-18T01:53:20;38.72;;;21.92;;
846;SDS011;410;48.954;9.474;2022-12-18T01:55:26;39.05;;;21.00;;
846;SDS011;410;48.954;9.474;2022-12-18T01:57:31;33.40;;;20.10;;
846;SDS011;410;48.954;9.474;2022-12-18T01:59:34;40.90;;;21.67;;
846;SDS011;410;48.954;9.474;2022-12-18T02:01:38;45.10;;;23.13;;
846;SDS011;410;48.954;9.474;2022-12-18T02:03:44;40.92;;;21.35;;
846;SDS011;410;48.954;9.474;2022-12-18T02:05:52;46.47;;;23.48;;
846;SDS011;410;48.954;9.474;2022-12-18T02:08:01;43.05;;;22.15;;
846;SDS011;410;48.954;9.474;2022-12-18T02:10:13;36.00;;;21.73;;
846;SDS011;410;48.954;9.474;2022-12-18T02:12:19;39.80;;;21.60;;
846;SDS011;410;48.954;9.474;2022-12-18T02:14:27;38.85;;;21.48;;
846;SDS011;410;48.954;9.474;2022-12-18T02:16:36;40.17;;;19.80;;
846;SDS011;410;48.954;9.474;2022-12-18T02:18:44;37.17;;;20.65;;
846;SDS011;410;48.954;9.474;2022-12-18T02:20:54;43.17;;;23.33;;
846;SDS011;410;48.954;9.474;2022-12-18T02:23:04;47.08;;;23.40;;
846;SDS011;410;48.954;9.474;2022-12-18T02:25:16;38.38;;;19.00;;
846;SDS011;410;48.954;9.474;2022-12-18T02:27:29;38.80;;;19.63;;
846;SDS011;410;48.954;9.474;2022-12-18T02:29:35;35.22;;;20.20;;
846;SDS011;410;48.954;9.474;2022-12-18T02:31:42;39.75;;;22.20;;
846;SDS011;410;48.954;9.474;2022-12-18T02:33:48;37.00;;;22.08;;
846;SDS011;410;48.954;9.474;2022-12-18T02:35:52;36.80;;;20.05;;
846;SDS011;410;48.954;9.474;2022-12-18T02:37:56;40.75;;;21.42;;
846;SDS011;410;48.954;9.474;2022-12-18T02:40:04;39.03;;;20.15;;
846;SDS011;410;48.954;9.474;2022-12-18T02:42:11;46.35;;;22.25;;
846;SDS011;410;48.954;9.474;2022-12-18T02:44:16;40.65;;;21.67;;
846;SDS011;410;48.954;9.474;2022-12-18T02:48:45;42.13;;;21.20;;
846;SDS011;410;48.954;9.474;2022-12-18T02:50:50;40.78;;;20.30;;
846;SDS011;410;48.954;9.474;2022-12-18T02:53:00;36.15;;;21.00;;
846;SDS011;410;48.954;9.474;2022-12-18T02:55:13;39.50;;;20.80;;
846;SDS011;410;48.954;9.474;2022-12-18T02:57:29;37.70;;;20.52;;
846;SDS011;410;48.954;9.474;2022-12-18T02:59:40;40.70;;;20.55;;
846;SDS011;410;48.954;9.474;2022-12-18T03:01:47;36.65;;;20.15;;
846;SDS011;410;48.954;9.474;2022-12-18T03:03:55;37.22;;;21.30;;
846;SDS011;410;48.954;9.474;2022-12-18T03:06:00;39.30;;;20.23;;
846;SDS011;410;48.954;9.474;2022-12-18T03:08:07;36.40;;;19.33;;
846;SDS011;410;48.954;9.474;2022-12-18T03:10:14;35.92;;;20.85;;
846;SDS011;410;48.954;9.474;2022-12-18T03:12:23;37.47;;;20.85;;
846;SDS011;410;48.954;9.474;2022-12-18T03:14:31;39.78;;;20.13;;
846;SDS011;410;48.954;9.474;2022-12-18T03:16:38;38.65;;;20.48;;
846;SDS011;410;48.954;9.474;2022-12-18T03:18:44;38.05;;;19.65;;
846;SDS011;410;48.954;9.474;2022-12-18T03:20:49;38.63;;;19.40;;
846;SDS011;410;48.954;9.474;2022-12-18T03:22:57;36.38;;;19.45;;
846;SDS011;410;48.954;9.474;2022-12-18T03:25:04;38.65;;;20.00;;
846;SDS011;410;48.954;9.474;2022-12-18T03:27:11;36.88;;;19.08;;
846;SDS011;410;48.954;9.474;2022-12-18T03:29:16;39.30;;;18.60;;
846;SDS011;410;48.954;9.474;2022-12-18T03:31:23;34.55;;;19.05;;
846;SDS011;410;48.954;9.474;2022-12-18T03:33:28;34.17;;;19.50;;
846;SDS011;410;48.954;9.474;2022-12-18T03:35:35;39.35;;;20.58;;
846;SDS011;410;48.954;9.474;2022-12-18T03:37:42;43.72;;;20.95;;
846;SDS011;410;48.954;9.474;2022-12-18T03:39:45;38.17;;;20.85;;
846;SDS011;410;48.954;9.474;2022-12-18T03:41:51;41.67;;;21.60;;
846;SDS011;410;48.954;9.474;2022-12-18T03:44:08;42.63;;;21.95;;
846;SDS011;410;48.954;9.474;2022-12-18T03:46:20;39.00;;;21.02;;
846;SDS011;410;48.954;9.474;2022-12-18T03:48:31;37.75;;;21.70;;
846;SDS011;410;48.954;9.474;2022-12-18T03:50:44;37.47;;;20.08;;
846;SDS011;410;48.954;9.474;2022-12-18T03:52:52;40.70;;;20.77;;
846;SDS011;410;48.954;9.474;2022-12-18T03:54:57;37.05;;;19.92;;
846;SDS011;410;48.954;9.474;2022-12-18T03:57:03;36.65;;;19.73;;
846;SDS011;410;48.954;9.474;2022-12-18T03:59:10;40.95;;;21.13;;
846;SDS011;410;48.954;9.474;2022-12-18T04:01:16;39.65;;;21.35;;
846;SDS011;410;48.954;9.474;2022-12-18T04:03:21;40.13;;;22.20;;
846;SDS011;410;48.954;9.474;2022-12-18T04:05:29;37.63;;;20.35;;
846;SDS011;410;48.954;9.474;2022-12-18T04:07:33;46.10;;;21.98;;
846;SDS011;410;48.954;9.474;2022-12-18T04:09:39;41.15;;;22.27;;
846;SDS011;410;48.954;9.474;2022-12-18T04:11:45;37.22;;;20.17;;
846;SDS011;410;48.954;9.474;2022-12-18T04:13:50;36.85;;;20.27;;
846;SDS011;410;48.954;9.474;2022-12-18T04:15:59;43.45;;;21.50;;
846;SDS011;410;48.954;9.474;2022-12-18T04:18:03;35.88;;;19.75;;
846;SDS011;410;48.954;9.474;2022-12-18T04:20:15;40.75;;;20.75;;
846;SDS011;410;48.954;9.474;2022-12-18T04:22:21;34.05;;;19.48;;
846;SDS011;410;48.954;9.474;2022-12-18T04:24:29;39.60;;;20.30;;
846;SDS011;410;48.954;9.474;2022-12-18T04:26:45;39.83;;;20.95;;
846;SDS011;410;48.954;9.474;2022-12-18T04:28:52;39.70;;;19.65;;
846;SDS011;410;48.954;9.474;2022-12-18T04:30:55;43.45;;;20.38;;
846;SDS011;410;48.954;9.474;2022-12-18T04:32:59;37.03;;;20.58;;
846;SDS011;410;48.954;9.474;2022-12-18T04:35:05;37.85;;;20.20;;
846;SDS011;410;48.954;9.474;2022-12-18T04:37:13;40.22;;;20.60;;
846;SDS011;410;48.954;9.474;2022-12-18T04:39:18;37.58;;;20.55;;
846;SDS011;410;48.954;9.474;2022-12-18T04:41:23;38.08;;;20.08;;
846;SDS011;410;48.954;9.474;2022-12-18T04:43:27;38.30;;;20.92;;
846;SDS011;410;48.954;9.474;2022-12-18T04:45:30;39.53;;;21.48;;
846;SDS011;410;48.954;9.474;2022-12-18T04:47:33;36.05;;;20.38;;
846;SDS011;410;48.954;9.474;2022-12-18T04:49:36;37.85;;;20.90;;
846;SDS011;410;48.954;9.474;2022-12-18T04:51:39;41.00;;;21.27;;
846;SDS011;410;48.954;9.474;2022-12-18T04:53:43;39.42;;;20.83;;
846;SDS011;410;48.954;9.474;2022-12-18T04:55:47;44.30;;;23.23;;
846;SDS011;410;48.954;9.474;2022-12-18T04:57:50;35.88;;;20.45;;
846;SDS011;410;48.954;9.474;2022-12-18T04:59:53;43.72;;;22.25;;
846;SDS011;410;48.954;9.474;2022-12-18T05:01:56;38.70;;;19.65;;
846;SDS011;410;48.954;9.474;2022-12-18T05:04:00;37.83;;;21.65;;
846;SDS011;410;48.954;9.474;2022-12-18T05:06:03;40.33;;;21.55;;
846;SDS011;410;48.954;9.474;2022-12-18T05:08:07;40.15;;;21.55;;
846;SDS011;410;48.954;9.474;2022-12-18T05:10:11;42.95;;;22.48;;
846;SDS011;410;48.954;9.474;2022-12-18T05:12:14;39.78;;;21.98;;
846;SDS011;410;48.954;9.474;2022-12-18T05:14:18;44.65;;;21.90;;
846;SDS011;410;48.954;9.474;2022-12-18T05:16:21;42.47;;;21.23;;
846;SDS011;410;48.954;9.474;2022-12-18T05:18:24;39.78;;;21.50;;
846;SDS011;410;48.954;9.474;2022-12-18T05:20:28;46.75;;;24.40;;
846;SDS011;410;48.954;9.474;2022-12-18T05:22:31;44.60;;;22.33;;
846;SDS011;410;48.954;9.474;2022-12-18T05:24:34;43.00;;;22.90;;
846;SDS011;410;48.954;9.474;2022-12-18T05:26:37;51.45;;;25.65;;
846;SDS011;410;48.954;9.474;2022-12-18T05:28:43;52.47;;;25.08;;
846;SDS011;410;48.954;9.474;2022-12-18T05:30:48;52.40;;;25.70;;
846;SDS011;410;48.954;9.474;2022-12-18T05:32:52;42.90;;;21.65;;
846;SDS011;410;48.954;9.474;2022-12-18T05:34:55;46.58;;;24.92;;
846;SDS011;410;48.954;9.474;2022-12-18T05:36:59;48.75;;;24.63;;
846;SDS011;410;48.954;9.474;2022-12-18T05:39:02;44.67;;;21.20;;
846;SDS011;410;48.954;9.474;2022-12-18T05:41:07;44.35;;;22.83;;
846;SDS011;410;48.954;9.474;2022-12-18T05:43:11;43.90;;;23.33;;
846;SDS011;410;48.954;9.474;2022-12-18T05:45:23;45.58;;;23.25;;
846;SDS011;410;48.954;9.474;2022-12-18T05:47:26;39.30;;;19.98;;
846;SDS011;410;48.954;9.474;2022-12-18T05:49:29;42.17;;;21.40;;
846;SDS011;410;48.954;9.474;2022-12-18T05:51:32;42.28;;;20.60;;
846;SDS011;410;48.954;9.474;2022-12-18T05:53:36;43.05;;;20.70;;
846;SDS011;410;48.954;9.474;2022-12-18T05:55:40;40.30;;;20.70;;
846;SDS011;410;48.954;9.474;2022-12-18T05:57:44;39.47;;;21.35;;
846;SDS011;410;48.954;9.474;2022-12-18T05:59:47;42.58;;;21.13;;
846;SDS011;410;48.954;9.474;2022-12-18T06:01:56;37.78;;;21.50;;
846;SDS011;410;48.954;9.474;2022-12-18T06:04:00;39.50;;;20.30;;
846;SDS011;410;48.954;9.474;2022-12-18T06:06:04;40.67;;;21.00;;
846;SDS011;410;48.954;9.474;2022-12-18T06:08:17;39.28;;;20.65;;
846;SDS011;410;48.954;9.474;2022-12-18T06:10:20;44.75;;;20.90;;
846;SDS011;410;48.954;9.474;2022-12-18T06:12:23;38.15;;;20.60;;
846;SDS011;410;48.954;9.474;2022-12-18T06:14:26;38.97;;;18.63;;
846;SDS011;410;48.954;9.474;2022-12-18T06:16:30;35.53;;;18.40;;
846;SDS011;410;48.954;9.474;2022-12-18T06:18:34;35.35;;;18.40;;
846;SDS011;410;48.954;9.474;2022-12-18T06:20:40;34.88;;;19.17;;
846;SDS011;410;48.954;9.474;2022-12-18T06:22:44;35.30;;;19.42;;
846;SDS011;410;48.954;9.474;2022-12-18T06:24:47;44.45;;;21.15;;
846;SDS011;410;48.954;9.474;2022-12-18T06:26:50;38.85;;;19.80;;
846;SDS011;410;48.954;9.474;2022-12-18T06:28:53;35.63;;;19.88;;
846;SDS011;410;48.954;9.474;2022-12-18T06:30:56;38.92;;;20.35;;
846;SDS011;410;48.954;9.474;2022-12-18T06:32:59;35.13;;;18.58;;
846;SDS011;410;48.954;9.474;2022-12-18T06:35:04;37.42;;;19.80;;
846;SDS011;410;48.954;9.474;2022-12-18T06:37:08;39.08;;;18.45;;
846;SDS011;410;48.954;9.474;2022-12-18T06:39:11;36.88;;;18.45;;
846;SDS011;410;48.954;9.474;2022-12-18T06:41:15;35.78;;;18.50;;
846;SDS011;410;48.954;9.474;2022-12-18T06:43:19;38.55;;;19.15;;
846;SDS011;410;48.954;9.474;2022-12-18T06:45:22;34.00;;;17.13;;
846;SDS011;410;48.954;9.474;2022-12-18T06:47:26;35.53;;;18.33;;
846;SDS011;410;48.954;9.474;2022-12-18T06:49:29;37.33;;;18.42;;
846;SDS011;410;48.954;9.474;2022-12-18T06:51:35;40.33;;;20.05;;
846;SDS011;410;48.954;9.474;2022-12-18T06:53:38;38.00;;;19.77;;
846;SDS011;410;48.954;9.474;2022-12-18T06:55:42;40.33;;;21.75;;
846;SDS011;410;48.954;9.474;2022-12-18T06:57:45;38.72;;;19.08;;
846;SDS011;410;48.954;9.474;2022-12-18T06:59:48;39.38;;;19.15;;
846;SDS011;410;48.954;9.474;2022-12-18T07:01:51;48.83;;;22.45;;
846;SDS011;410;48.954;9.474;2022-12-18T07:03:55;70.60;;;30.73;;
846;SDS011;410;48.954;9.474;2022-12-18T07:05:59;98.40;;;38.45;;
846;SDS011;410;48.954;9.474;2022-12-18T07:08:04;116.53;;;42.90;;
846;SDS011;410;48.954;9.474;2022-12-18T07:10:08;81.38;;;32.78;;
846;SDS011;410;48.954;9.474;2022-12-18T07:12:11;81.55;;;30.65;;
846;SDS011;410;48.954;9.474;2022-12-18T07:14:15;79.88;;;30.65;;
846;SDS011;410;48.954;9.474;2022-12-18T07:16:19;57.00;;;24.67;;
846;SDS011;410;48.954;9.474;2022-12-18T07:18:26;105.00;;;40.00;;
846;SDS011;410;48.954;9.474;2022-12-18T07:20:29;84.05;;;35.22;;
846;SDS011;410;48.954;9.474;2022-12-18T07:22:32;71.72;;;28.90;;
846;SDS011;410;48.954;9.474;2022-12-18T07:24:36;49.80;;;22.20;;
846;SDS011;410;48.954;9.474;2022-12-18T07:26:40;56.60;;;22.20;;
846;SDS011;410;48.954;9.474;2022-12-18T07:28:43;51.75;;;22.10;;
846;SDS011;410;48.954;9.474;2022-12-18T07:30:46;58.28;;;22.55;;
846;SDS011;410;48.954;9.474;2022-12-18T07:32:49;41.85;;;20.25;;
846;SDS011;410;48.954;9.474;2022-12-18T07:34:52;42.28;;;19.50;;
846;SDS011;410;48.954;9.474;2022-12-18T07:36:55;38.35;;;18.73;;
846;SDS011;410;48.954;9.474;2022-12-18T07:38:58;37.28;;;18.85;;
846;SDS011;410;48.954;9.474;2022-12-18T07:41:04;37.35;;;17.95;;
846;SDS011;410;48.954;9.474;2022-12-18T07:43:08;47.55;;;22.73;;
846;SDS011;410;48.954;9.474;2022-12-18T07:45:11;66.72;;;32.40;;
846;SDS011;410;48.954;9.474;2022-12-18T07:47:14;46.42;;;24.60;;
846;SDS011;410;48.954;9.474;2022-12-18T07:49:17;38.38;;;20.05;;
846;SDS011;410;48.954;9.474;2022-12-18T07:51:20;40.40;;;18.60;;
846;SDS011;410;48.954;9.474;2022-12-18T07:53:23;41.20;;;20.15;;
846;SDS011;410;48.954;9.474;2022-12-18T07:55:26;37.70;;;18.48;;
846;SDS011;410;48.954;9.474;2022-12-18T07:57:49;37.47;;;19.02;;
846;SDS011;410;48.954;9.474;2022-12-18T07:59:59;40.17;;;19.55;;
846;SDS011;410;48.954;9.474;2022-12-18T08:02:13;38.65;;;18.10;;
846;SDS011;410;48.954;9.474;2022-12-18T08:04:38;35.95;;;18.20;;
846;SDS011;410;48.954;9.474;2022-12-18T08:06:41;38.30;;;18.77;;
846;SDS011;410;48.954;9.474;2022-12-18T08:08:48;41.28;;;18.92;;
846;SDS011;410;48.954;9.474;2022-12-18T08:10:51;37.83;;;18.50;;
846;SDS011;410;48.954;9.474;2022-12-18T08:12:56;32.75;;;17.30;;
846;SDS011;410;48.954;9.474;2022-12-18T08:15:05;39.88;;;19.88;;
846;SDS011;410;48.954;9.474;2022-12-18T08:17:09;39.55;;;19.95;;
846;SDS011;410;48.954;9.474;2022-12-18T08:19:12;38.63;;;19.35;;
846;SDS011;410;48.954;9.474;2022-12-18T08:21:16;45.78;;;21.40;;
846;SDS011;410;48.954;9.474;2022-12-18T08:23:22;38.85;;;19.98;;
846;SDS011;410;48.954;9.474;2022-12-18T08:25:29;43.83;;;20.92;;
846;SDS011;410;48.954;9.474;2022-12-18T08:27:32;38.75;;;19.10;;
846;SDS011;410;48.954;9.474;2022-12-18T08:29:37;40.97;;;19.58;;
846;SDS011;410;48.954;9.474;2022-12-18T08:31:40;38.05;;;18.02;;
846;SDS011;410;48.954;9.474;2022-12-18T08:33:43;40.30;;;18.70;;
846;SDS011;410;48.954;9.474;2022-12-18T08:35:47;38.58;;;18.10;;
846;SDS011;410;48.954;9.474;2022-12-18T08:37:50;36.42;;;18.58;;
846;SDS011;410;48.954;9.474;2022-12-18T08:39:53;40.25;;;20.30;;
846;SDS011;410;48.954;9.474;2022-12-18T08:41:56;38.25;;;20.45;;
846;SDS011;410;48.954;9.474;2022-12-18T08:44:16;34.67;;;18.48;;
846;SDS011;410;48.954;9.474;2022-12-18T08:46:39;36.35;;;18.35;;
846;SDS011;410;48.954;9.474;2022-12-18T08:48:43;35.20;;;16.65;;
846;SDS011;410;48.954;9.474;2022-12-18T08:50:53;35.45;;;18.45;;
846;SDS011;410;48.954;9.474;2022-12-18T08:52:56;39.90;;;21.17;;
846;SDS011;410;48.954;9.474;2022-12-18T08:54:59;33.42;;;17.90;;
846;SDS011;410;48.954;9.474;2022-12-18T08:57:03;41.35;;;19.70;;
846;SDS011;410;48.954;9.474;2022-12-18T08:59:06;33.85;;;18.20;;
846;SDS011;410;48.954;9.474;2022-12-18T09:01:09;38.63;;;19.10;;
846;SDS011;410;48.954;9.474;2022-12-18T09:03:15;37.15;;;18.38;;
846;SDS011;410;48.954;9.474;2022-12-18T09:05:21;38.13;;;19.50;;
846;SDS011;410;48.954;9.474;2022-12-18T09:07:24;33.28;;;17.63;;
846;SDS011;410;48.954;9.474;2022-12-18T09:09:28;38.70;;;19.20;;
846;SDS011;410;48.954;9.474;2022-12-18T09:11:31;35.22;;;17.77;;
846;SDS011;410;48.954;9.474;2022-12-18T09:13:36;40.00;;;18.70;;
846;SDS011;410;48.954;9.474;2022-12-18T09:15:40;37.17;;;19.33;;
846;SDS011;410;48.954;9.474;2022-12-18T09:17:44;38.00;;;18.27;;
846;SDS011;410;48.954;9.474;2022-12-18T09:19:51;37.97;;;18.65;;
846;SDS011;410;48.954;9.474;2022-12-18T09:21:54;34.42;;;17.77;;
846;SDS011;410;48.954;9.474;2022-12-18T09:23:57;34.65;;;19.10;;
846;SDS011;410;48.954;9.474;2022-12-18T09:26:01;40.22;;;19.27;;
846;SDS011;410;48.954;9.474;2022-12-18T09:28:05;38.10;;;18.75;;
846;SDS011;410;48.954;9.474;2022-12-18T09:30:09;34.75;;;17.98;;
846;SDS011;410;48.954;9.474;2022-12-18T09:32:14;40.28;;;18.35;;
846;SDS011;410;48.954;9.474;2022-12-18T09:34:23;39.92;;;19.10;;
846;SDS011;410;48.954;9.474;2022-12-18T09:36:27;36.10;;;18.63;;
846;SDS011;410;48.954;9.474;2022-12-18T09:38:30;34.20;;;18.65;;
846;SDS011;410;48.954;9.474;2022-12-18T09:40:34;36.38;;;17.80;;
846;SDS011;410;48.954;9.474;2022-12-18T09:42:39;37.78;;;19.20;;
846;SDS011;410;48.954;9.474;2022-12-18T09:44:43;37.33;;;19.20;;
846;SDS011;410;48.954;9.474;2022-12-18T09:46:49;35.35;;;17.92;;
846;SDS011;410;48.954;9.474;2022-12-18T09:48:57;35.55;;;18.15;;
846;SDS011;410;48.954;9.474;2022-12-18T09:51:03;39.35;;;18.98;;
846;SDS011;410;48.954;9.474;2022-12-18T09:53:13;36.17;;;19.33;;
846;SDS011;410;48.954;9.474;2022-12-18T09:55:21;36.95;;;18.30;;
846;SDS011;410;48.954;9.474;2022-12-18T09:57:28;35.78;;;18.00;;
846;SDS011;410;48.954;9.474;2022-12-18T09:59:34;37.40;;;20.05;;
846;SDS011;410;48.954;9.474;2022-12-18T10:01:38;38.95;;;20.25;;
846;SDS011;410;48.954;9.474;2022-12-18T10:03:45;41.33;;;19.73;;
846;SDS011;410;48.954;9.474;2022-12-18T10:05:51;34.15;;;18.40;;
846;SDS011;410;48.954;9.474;2022-12-18T10:08:00;36.03;;;18.75;;
846;SDS011;410;48.954;9.474;2022-12-18T10:10:07;36.80;;;18.55;;
846;SDS011;410;48.954;9.474;2022-12-18T10:12:19;37.83;;;19.77;;
846;SDS011;410;48.954;9.474;2022-12-18T10:14:27;33.35;;;17.40;;
846;SDS011;410;48.954;9.474;2022-12-18T10:16:34;41.67;;;19.45;;
846;SDS011;410;48.954;9.474;2022-12-18T10:18:56;37.92;;;19.35;;
846;SDS011;410;48.954;9.474;2022-12-18T10:21:06;42.03;;;18.70;;
846;SDS011;410;48.954;9.474;2022-12-18T10:23:14;36.25;;;18.42;;
846;SDS011;410;48.954;9.474;2022-12-18T10:25:23;38.17;;;19.17;;
846;SDS011;410;48.954;9.474;2022-12-18T10:27:28;33.75;;;17.70;;
846;SDS011;410;48.954;9.474;2022-12-18T10:29:31;33.05;;;17.67;;
846;SDS011;410;48.954;9.474;2022-12-18T10:31:34;34.80;;;17.02;;
846;SDS011;410;48.954;9.474;2022-12-18T10:33:37;33.25;;;17.33;;
846;SDS011;410;48.954;9.474;2022-12-18T10:35:41;32.47;;;17.05;;
846;SDS011;410;48.954;9.474;2022-12-18T10:38:00;33.85;;;18.08;;
846;SDS011;410;48.954;9.474;2022-12-18T10:40:18;29.35;;;15.82;;
846;SDS011;410;48.954;9.474;2022-12-18T10:42:27;31.52;;;16.95;;
846;SDS011;410;48.954;9.474;2022-12-18T10:44:30;30.65;;;16.55;;
846;SDS011;410;48.954;9.474;2022-12-18T10:46:33;29.75;;;16.00;;
846;SDS011;410;48.954;9.474;2022-12-18T10:48:39;32.20;;;16.85;;
846;SDS011;410;48.954;9.474;2022-12-18T10:50:46;36.67;;;18.13;;
846;SDS011;410;48.954;9.474;2022-12-18T10:53:13;30.70;;;15.57;;
846;SDS011;410;48.954;9.474;2022-12-18T10:55:21;36.78;;;17.40;;
846;SDS011;410;48.954;9.474;2022-12-18T10:57:33;32.17;;;16.52;;
846;SDS011;410;48.954;9.474;2022-12-18T10:59:49;32.03;;;16.35;;
846;SDS011;410;48.954;9.474;2022-12-18T11:01:55;29.10;;;16.48;;
846;SDS011;410;48.954;9.474;2022-12-18T11:04:13;32.35;;;16.35;;
846;SDS011;410;48.954;9.474;2022-12-18T11:06:20;32.13;;;16.55;;
846;SDS011;410;48.954;9.474;2022-12-18T11:08:26;32.50;;;16.23;;
846;SDS011;410;48.954;9.474;2022-12-18T11:10:30;30.67;;;16.70;;
846;SDS011;410;48.954;9.474;2022-12-18T11:12:35;35.70;;;18.25;;
846;SDS011;410;48.954;9.474;2022-12-18T11:14:42;31.95;;;16.85;;
846;SDS011;410;48.954;9.474;2022-12-18T11:16:51;31.80;;;16.55;;
846;SDS011;410;48.954;9.474;2022-12-18T11:19:19;29.50;;;15.02;;
846;SDS011;410;48.954;9.474;2022-12-18T11:21:25;32.22;;;17.10;;
846;SDS011;410;48.954;9.474;2022-12-18T11:23:28;31.65;;;16.92;;
846;SDS011;410;48.954;9.474;2022-12-18T11:25:32;34.70;;;17.88;;
846;SDS011;410;48.954;9.474;2022-12-18T11:27:38;30.77;;;16.98;;
846;SDS011;410;48.954;9.474;2022-12-18T11:29:41;33.30;;;17.23;;
846;SDS011;410;48.954;9.474;2022-12-18T11:31:47;29.05;;;16.35;;
846;SDS011;410;48.954;9.474;2022-12-18T11:33:59;29.15;;;16.08;;
846;SDS011;410;48.954;9.474;2022-12-18T11:36:23;34.60;;;17.08;;
846;SDS011;410;48.954;9.474;2022-12-18T11:38:29;31.77;;;16.67;;
846;SDS011;410;48.954;9.474;2022-12-18T11:40:34;32.95;;;17.05;;
846;SDS011;410;48.954;9.474;2022-12-18T11:42:44;30.40;;;16.17;;
846;SDS011;410;48.954;9.474;2022-12-18T11:44:50;30.00;;;16.88;;
846;SDS011;410;48.954;9.474;2022-12-18T11:46:56;29.45;;;15.73;;
846;SDS011;410;48.954;9.474;2022-12-18T11:49:03;34.15;;;17.45;;
846;SDS011;410;48.954;9.474;2022-12-18T11:51:11;30.77;;;16.20;;
846;SDS011;410;48.954;9.474;2022-12-18T11:53:23;32.85;;;16.83;;
846;SDS011;410;48.954;9.474;2022-12-18T11:55:33;34.58;;;16.70;;
846;SDS011;410;48.954;9.474;2022-12-18T11:57:42;30.40;;;16.10;;
846;SDS011;410;48.954;9.474;2022-12-18T11:59:54;32.50;;;17.30;;
846;SDS011;410;48.954;9.474;2022-12-18T12:02:01;32.60;;;17.00;;
846;SDS011;410;48.954;9.474;2022-12-18T12:04:18;36.13;;;17.15;;
846;SDS011;410;48.954;9.474;2022-12-18T12:06:43;34.28;;;16.45;;
846;SDS011;410;48.954;9.474;2022-12-18T12:08:55;32.78;;;16.25;;
846;SDS011;410;48.954;9.474;2022-12-18T12:11:05;30.00;;;16.42;;
846;SDS011;410;48.954;9.474;2022-12-18T12:13:15;29.65;;;15.90;;
846;SDS011;410;48.954;9.474;2022-12-18T12:15:27;28.73;;;15.75;;
846;SDS011;410;48.954;9.474;2022-12-18T12:17:37;30.13;;;16.02;;
846;SDS011;410;48.954;9.474;2022-12-18T12:19:46;34.35;;;19.33;;
846;SDS011;410;48.954;9.474;2022-12-18T12:21:55;30.55;;;17.10;;
846;SDS011;410;48.954;9.474;2022-12-18T12:24:04;31.08;;;16.52;;
846;SDS011;410;48.954;9.474;2022-12-18T12:26:14;31.58;;;16.90;;
846;SDS011;410;48.954;9.474;2022-12-18T12:28:24;32.55;;;17.60;;
846;SDS011;410;48.954;9.474;2022-12-18T12:30:39;34.63;;;17.45;;
846;SDS011;410;48.954;9.474;2022-12-18T12:32:59;32.90;;;17.38;;
846;SDS011;410;48.954;9.474;2022-12-18T12:35:12;30.05;;;16.00;;
846;SDS011;410;48.954;9.474;2022-12-18T12:37:29;35.40;;;17.52;;
846;SDS011;410;48.954;9.474;2022-12-18T12:39:43;32.47;;;16.88;;
846;SDS011;410;48.954;9.474;2022-12-18T12:41:48;31.52;;;17.45;;
846;SDS011;410;48.954;9.474;2022-12-18T12:44:13;34.58;;;18.17;;
846;SDS011;410;48.954;9.474;2022-12-18T12:46:19;33.85;;;17.88;;
846;SDS011;410;48.954;9.474;2022-12-18T12:48:31;35.17;;;16.48;;
846;SDS011;410;48.954;9.474;2022-12-18T12:50:37;33.22;;;16.95;;
846;SDS011;410;48.954;9.474;2022-12-18T12:52:42;27.52;;;15.18;;
846;SDS011;410;48.954;9.474;2022-12-18T12:54:46;28.23;;;16.38;;
846;SDS011;410;48.954;9.474;2022-12-18T12:56:52;32.72;;;16.50;;
846;SDS011;410;48.954;9.474;2022-12-18T12:59:02;34.05;;;16.70;;
846;SDS011;410;48.954;9.474;2022-12-18T13:01:12;34.55;;;16.70;;
846;SDS011;410;48.954;9.474;2022-12-18T13:03:35;31.75;;;17.05;;
846;SDS011;410;48.954;9.474;2022-12-18T13:05:45;32.17;;;16.45;;
846;SDS011;410;48.954;9.474;2022-12-18T13:07:52;33.85;;;16.23;;
846;SDS011;410;48.954;9.474;2022-12-18T13:12:35;32.28;;;18.40;;